This is the latest recevied weather packets stored in our database for station/object W4VCO. If no packets are shown the sender has not sent any weather packets the latest 1 day(s).
| Time | Temp. | Humidity | Pressure | Rain* | Wind** | Luminosity | Snow |
|---|---|---|---|---|---|---|---|
| 1778005816 | 31.11° C | 37% | 1013.8 hPa | 0 mm | 3.13 m/s, 96° | - | - |
| 1778005512 | 31.11° C | 38% | 1013.9 hPa | 0 mm | 0.45 m/s, 153° | - | - |
| 1778004912 | 30.56° C | 39% | 1013.9 hPa | 0 mm | 2.24 m/s, 24° | - | - |
| 1778001314 | 29.44° C | 43% | 1014.9 hPa | 0 mm | 2.68 m/s, 34° | - | - |
| 1777992911 | 27.22° C | 53% | 1014.9 hPa | 0 mm | 3.13 m/s, 111° | - | - |
| 1777989014 | 25° C | 65% | 1014.5 hPa | 0 mm | 3.58 m/s, 97° | - | - |
| 1777988418 | 24.44° C | 68% | 1014.6 hPa | 0 mm | 4.47 m/s, 121° | - | - |
| 1777987511 | 23.33° C | 73% | 1014.5 hPa | 0 mm | 3.58 m/s, 79° | - | - |
| 1777985113 | 20.56° C | 87% | 1014.4 hPa | 0 mm | 1.79 m/s, 105° | - | - |
| 1777983915 | 18.89° C | 94% | 1014.6 hPa | 0 mm | 1.34 m/s, 14° | - | - |
| 1777983015 | 18.33° C | 95% | 1014.5 hPa | 0 mm | 0 m/s | - | - |
| 1777982114 | 17.78° C | 95% | 1014.4 hPa | 0 mm | 0 m/s | - | - |
| 1777980615 | 16.67° C | 95% | 1013.9 hPa | 0 mm | 0 m/s | - | - |
| 1777980014 | 16.67° C | 95% | 1013.8 hPa | 0 mm | 0 m/s | - | - |
| 1777978215 | 16.11° C | 94% | 1013.4 hPa | 0 mm | 0 m/s | - | - |
| 1777976715 | 16.67° C | 93% | 1013.4 hPa | 0 mm | 0 m/s | - | - |
| 1777976116 | 16.67° C | 93% | 1013.3 hPa | 0 mm | 0 m/s | - | - |
| 1777975515 | 16.67° C | 92% | 1013.4 hPa | 0 mm | 0 m/s | - | - |
| 1777975216 | 16.67° C | 92% | 1013.1 hPa | 0 mm | 0 m/s | - | - |
| 1777974916 | 16.67° C | 92% | 1013.1 hPa | 0 mm | 0 m/s | - | - |
| 1777974313 | 17.22° C | 92% | 1013.1 hPa | 0 mm | 0 m/s | - | - |
| 1777973713 | 17.22° C | 91% | 1013 hPa | 0 mm | 0 m/s | - | - |
| 1777973415 | 17.22° C | 91% | 1012.9 hPa | 0 mm | 0 m/s | - | - |
| 1777973117 | 17.22° C | 91% | 1012.9 hPa | 0 mm | 0 m/s | - | - |
| 1777972817 | 17.22° C | 90% | 1012.9 hPa | 0 mm | 0 m/s | - | - |
* Rain latest hour (hover to see other rain measurements)
** Current wind speed in m/s (hover to see current wind gust speed)